sensor_id;sensor_type;location;lat;lon;timestamp;pressure;altitude;pressure_sealevel;temperature;humidity
59194;BME280;44967;48.598;15.650;2023-07-20T00:01:28;97702.25;;;17.25;85.88
59194;BME280;44967;48.598;15.650;2023-07-20T00:03:54;97709.19;;;17.28;84.74
59194;BME280;44967;48.598;15.650;2023-07-20T00:06:24;97704.72;;;17.28;85.03
59194;BME280;44967;48.598;15.650;2023-07-20T00:08:53;97703.59;;;17.45;84.25
59194;BME280;44967;48.598;15.650;2023-07-20T00:11:18;97695.44;;;17.47;84.54
59194;BME280;44967;48.598;15.650;2023-07-20T00:13:44;97685.88;;;17.57;84.68
59194;BME280;44967;48.598;15.650;2023-07-20T00:16:10;97678.06;;;17.54;85.41
59194;BME280;44967;48.598;15.650;2023-07-20T00:18:35;97664.78;;;17.39;85.73
59194;BME280;44967;48.598;15.650;2023-07-20T00:21:01;97670.88;;;17.54;85.30
59194;BME280;44967;48.598;15.650;2023-07-20T00:23:27;97671.00;;;17.53;83.86
59194;BME280;44967;48.598;15.650;2023-07-20T00:25:53;97679.25;;;17.50;84.72
59194;BME280;44967;48.598;15.650;2023-07-20T00:28:20;97672.91;;;17.38;85.05
59194;BME280;44967;48.598;15.650;2023-07-20T00:30:46;97674.19;;;17.45;85.55
59194;BME280;44967;48.598;15.650;2023-07-20T00:33:12;97682.19;;;17.32;84.37
59194;BME280;44967;48.598;15.650;2023-07-20T00:35:40;97688.03;;;17.25;85.32
59194;BME280;44967;48.598;15.650;2023-07-20T00:38:06;97697.56;;;17.29;85.48
59194;BME280;44967;48.598;15.650;2023-07-20T00:40:38;97706.03;;;17.09;85.65
59194;BME280;44967;48.598;15.650;2023-07-20T00:43:05;97712.13;;;17.11;86.23
59194;BME280;44967;48.598;15.650;2023-07-20T00:45:31;97714.44;;;17.29;85.82
59194;BME280;44967;48.598;15.650;2023-07-20T00:47:58;97718.63;;;17.33;85.87
59194;BME280;44967;48.598;15.650;2023-07-20T00:50:25;97716.03;;;17.32;85.17
59194;BME280;44967;48.598;15.650;2023-07-20T00:52:52;97714.50;;;17.42;85.66
59194;BME280;44967;48.598;15.650;2023-07-20T00:55:19;97711.47;;;17.34;85.90
59194;BME280;44967;48.598;15.650;2023-07-20T00:57:45;97710.97;;;17.41;85.86
59194;BME280;44967;48.598;15.650;2023-07-20T01:00:11;97701.13;;;17.42;85.16
59194;BME280;44967;48.598;15.650;2023-07-20T01:02:37;97701.88;;;17.44;85.14
59194;BME280;44967;48.598;15.650;2023-07-20T01:05:04;97704.88;;;17.52;85.84
59194;BME280;44967;48.598;15.650;2023-07-20T01:07:37;97709.66;;;17.47;84.13
59194;BME280;44967;48.598;15.650;2023-07-20T01:12:54;97712.47;;;17.46;84.41
59194;BME280;44967;48.598;15.650;2023-07-20T01:15:23;97709.41;;;17.25;84.17
59194;BME280;44967;48.598;15.650;2023-07-20T01:17:49;97713.88;;;17.24;84.17
59194;BME280;44967;48.598;15.650;2023-07-20T01:20:19;97712.94;;;17.25;84.25
59194;BME280;44967;48.598;15.650;2023-07-20T01:31:23;97699.06;;;17.33;85.00
59194;BME280;44967;48.598;15.650;2023-07-20T01:33:50;97709.53;;;17.36;84.81
59194;BME280;44967;48.598;15.650;2023-07-20T01:36:18;97705.91;;;17.37;85.26
59194;BME280;44967;48.598;15.650;2023-07-20T01:38:44;97710.69;;;17.32;85.40
59194;BME280;44967;48.598;15.650;2023-07-20T01:41:11;97700.97;;;17.31;85.64
59194;BME280;44967;48.598;15.650;2023-07-20T01:43:37;97700.97;;;17.31;85.55
59194;BME280;44967;48.598;15.650;2023-07-20T01:46:02;97698.00;;;17.35;85.42
59194;BME280;44967;48.598;15.650;2023-07-20T01:48:28;97699.59;;;17.25;85.64
59194;BME280;44967;48.598;15.650;2023-07-20T01:50:54;97703.19;;;17.24;85.44
59194;BME280;44967;48.598;15.650;2023-07-20T01:53:20;97693.34;;;17.12;85.64
59194;BME280;44967;48.598;15.650;2023-07-20T01:55:46;97692.34;;;17.01;85.97
59194;BME280;44967;48.598;15.650;2023-07-20T01:58:12;97701.50;;;16.96;85.56
59194;BME280;44967;48.598;15.650;2023-07-20T02:00:37;97698.44;;;17.03;85.58
59194;BME280;44967;48.598;15.650;2023-07-20T02:03:04;97696.72;;;17.02;85.96
59194;BME280;44967;48.598;15.650;2023-07-20T02:05:30;97702.38;;;16.83;86.03
59194;BME280;44967;48.598;15.650;2023-07-20T02:07:56;97692.41;;;16.86;85.88
59194;BME280;44967;48.598;15.650;2023-07-20T02:10:22;97695.59;;;16.91;85.75
59194;BME280;44967;48.598;15.650;2023-07-20T02:12:48;97707.25;;;16.90;86.14
59194;BME280;44967;48.598;15.650;2023-07-20T02:15:14;97699.19;;;16.78;85.35
59194;BME280;44967;48.598;15.650;2023-07-20T02:17:42;97695.00;;;16.74;85.81
59194;BME280;44967;48.598;15.650;2023-07-20T02:20:09;97697.47;;;16.77;85.93
59194;BME280;44967;48.598;15.650;2023-07-20T02:22:38;97684.69;;;16.68;86.23
59194;BME280;44967;48.598;15.650;2023-07-20T02:25:05;97685.69;;;16.67;85.60
59194;BME280;44967;48.598;15.650;2023-07-20T02:27:31;97679.28;;;16.69;85.99
59194;BME280;44967;48.598;15.650;2023-07-20T02:29:56;97681.28;;;16.66;85.22
59194;BME280;44967;48.598;15.650;2023-07-20T02:32:22;97684.03;;;16.64;85.58
59194;BME280;44967;48.598;15.650;2023-07-20T02:34:48;97683.31;;;16.62;85.15
59194;BME280;44967;48.598;15.650;2023-07-20T02:37:14;97690.31;;;16.63;86.06
59194;BME280;44967;48.598;15.650;2023-07-20T02:39:39;97684.34;;;16.60;85.89
59194;BME280;44967;48.598;15.650;2023-07-20T02:42:06;97691.00;;;16.67;86.12
59194;BME280;44967;48.598;15.650;2023-07-20T02:44:33;97693.38;;;16.71;86.51
59194;BME280;44967;48.598;15.650;2023-07-20T02:46:59;97705.19;;;16.67;86.46
59194;BME280;44967;48.598;15.650;2023-07-20T02:49:25;97702.59;;;16.51;86.94
59194;BME280;44967;48.598;15.650;2023-07-20T02:51:50;97720.25;;;16.54;86.48
59194;BME280;44967;48.598;15.650;2023-07-20T02:54:16;97721.03;;;16.42;85.81
59194;BME280;44967;48.598;15.650;2023-07-20T02:56:42;97717.00;;;16.49;85.84
59194;BME280;44967;48.598;15.650;2023-07-20T02:59:08;97725.41;;;16.43;85.73
59194;BME280;44967;48.598;15.650;2023-07-20T03:01:34;97727.69;;;16.35;85.67
59194;BME280;44967;48.598;15.650;2023-07-20T03:03:59;97739.78;;;16.26;86.35
59194;BME280;44967;48.598;15.650;2023-07-20T03:06:25;97737.31;;;16.23;87.08
59194;BME280;44967;48.598;15.650;2023-07-20T03:08:51;97743.31;;;16.27;86.95
59194;BME280;44967;48.598;15.650;2023-07-20T03:11:19;97739.00;;;16.24;86.13
59194;BME280;44967;48.598;15.650;2023-07-20T03:13:46;97751.13;;;16.30;86.47
59194;BME280;44967;48.598;15.650;2023-07-20T03:16:14;97764.19;;;16.34;86.04
59194;BME280;44967;48.598;15.650;2023-07-20T03:18:43;97769.03;;;16.42;85.85
59194;BME280;44967;48.598;15.650;2023-07-20T03:21:09;97767.97;;;16.30;85.52
59194;BME280;44967;48.598;15.650;2023-07-20T03:23:37;97771.41;;;16.32;85.50
59194;BME280;44967;48.598;15.650;2023-07-20T03:26:03;97779.78;;;16.26;85.99
59194;BME280;44967;48.598;15.650;2023-07-20T03:28:29;97772.25;;;16.33;85.72
59194;BME280;44967;48.598;15.650;2023-07-20T03:30:56;97779.50;;;16.31;85.21
59194;BME280;44967;48.598;15.650;2023-07-20T03:33:26;97777.31;;;16.23;85.46
59194;BME280;44967;48.598;15.650;2023-07-20T03:35:53;97789.75;;;16.09;86.13
59194;BME280;44967;48.598;15.650;2023-07-20T03:38:20;97797.47;;;16.13;86.45
59194;BME280;44967;48.598;15.650;2023-07-20T03:40:49;97792.44;;;16.23;86.26
59194;BME280;44967;48.598;15.650;2023-07-20T03:43:15;97796.81;;;16.24;86.55
59194;BME280;44967;48.598;15.650;2023-07-20T03:45:41;97803.88;;;16.25;85.78
59194;BME280;44967;48.598;15.650;2023-07-20T03:48:06;97806.66;;;16.37;86.14
59194;BME280;44967;48.598;15.650;2023-07-20T03:50:33;97803.59;;;16.43;85.42
59194;BME280;44967;48.598;15.650;2023-07-20T03:52:59;97809.41;;;16.36;85.13
59194;BME280;44967;48.598;15.650;2023-07-20T03:55:24;97800.44;;;16.37;85.56
59194;BME280;44967;48.598;15.650;2023-07-20T03:57:50;97805.13;;;16.33;85.11
59194;BME280;44967;48.598;15.650;2023-07-20T04:00:17;97806.53;;;16.25;85.18
59194;BME280;44967;48.598;15.650;2023-07-20T04:02:43;97806.66;;;16.23;85.99
59194;BME280;44967;48.598;15.650;2023-07-20T04:05:08;97809.41;;;16.36;85.61
59194;BME280;44967;48.598;15.650;2023-07-20T04:07:34;97801.50;;;16.34;85.92
59194;BME280;44967;48.598;15.650;2023-07-20T04:10:00;97800.44;;;16.37;85.91
59194;BME280;44967;48.598;15.650;2023-07-20T04:12:26;97805.88;;;16.49;86.41
59194;BME280;44967;48.598;15.650;2023-07-20T04:14:51;97801.84;;;16.58;85.93
59194;BME280;44967;48.598;15.650;2023-07-20T04:17:18;97803.81;;;16.55;85.94
59194;BME280;44967;48.598;15.650;2023-07-20T04:19:43;97804.31;;;16.61;85.52
59194;BME280;44967;48.598;15.650;2023-07-20T04:22:09;97812.78;;;16.68;85.31
59194;BME280;44967;48.598;15.650;2023-07-20T04:24:35;97818.16;;;16.52;85.55
59194;BME280;44967;48.598;15.650;2023-07-20T04:27:01;97816.09;;;16.43;85.79
59194;BME280;44967;48.598;15.650;2023-07-20T04:29:26;97812.84;;;16.38;86.27
59194;BME280;44967;48.598;15.650;2023-07-20T04:31:52;97809.59;;;16.33;87.04
59194;BME280;44967;48.598;15.650;2023-07-20T04:34:18;97809.59;;;16.33;86.64
59194;BME280;44967;48.598;15.650;2023-07-20T04:36:43;97812.84;;;16.38;86.71
59194;BME280;44967;48.598;15.650;2023-07-20T04:39:09;97815.91;;;16.46;86.67
59194;BME280;44967;48.598;15.650;2023-07-20T04:41:36;97828.41;;;16.60;86.31
59194;BME280;44967;48.598;15.650;2023-07-20T04:44:02;97823.91;;;16.46;86.75
59194;BME280;44967;48.598;15.650;2023-07-20T04:46:28;97821.13;;;16.47;87.44
59194;BME280;44967;48.598;15.650;2023-07-20T04:48:53;97820.75;;;16.54;87.22
59194;BME280;44967;48.598;15.650;2023-07-20T04:51:19;97814.78;;;16.64;87.04
59194;BME280;44967;48.598;15.650;2023-07-20T04:53:48;97819.75;;;16.70;87.07
59194;BME280;44967;48.598;15.650;2023-07-20T04:56:14;97827.84;;;16.69;87.47
59194;BME280;44967;48.598;15.650;2023-07-20T04:58:40;97830.78;;;16.64;87.49
59194;BME280;44967;48.598;15.650;2023-07-20T05:01:05;97832.88;;;16.73;87.26
59194;BME280;44967;48.598;15.650;2023-07-20T05:03:31;97837.06;;;16.91;86.77
59194;BME280;44967;48.598;15.650;2023-07-20T05:05:57;97840.69;;;17.05;87.13
59194;BME280;44967;48.598;15.650;2023-07-20T05:08:23;97840.19;;;17.12;86.79
59194;BME280;44967;48.598;15.650;2023-07-20T05:10:49;97834.63;;;17.15;86.72
59194;BME280;44967;48.598;15.650;2023-07-20T05:13:15;97840.75;;;17.17;85.46
59194;BME280;44967;48.598;15.650;2023-07-20T05:15:40;97849.22;;;17.24;85.70
59194;BME280;44967;48.598;15.650;2023-07-20T05:18:06;97851.63;;;17.14;86.31
59194;BME280;44967;48.598;15.650;2023-07-20T05:20:34;97852.31;;;17.04;87.90
59194;BME280;44967;48.598;15.650;2023-07-20T05:23:00;97836.44;;;17.15;87.91
59194;BME280;44967;48.598;15.650;2023-07-20T05:25:26;97837.94;;;17.33;87.56
59194;BME280;44967;48.598;15.650;2023-07-20T05:27:52;97838.31;;;17.41;87.80
59194;BME280;44967;48.598;15.650;2023-07-20T05:30:18;97842.38;;;17.47;87.24
59194;BME280;44967;48.598;15.650;2023-07-20T05:32:44;97841.22;;;17.51;87.19
59194;BME280;44967;48.598;15.650;2023-07-20T05:35:17;97847.13;;;17.56;87.25
59194;BME280;44967;48.598;15.650;2023-07-20T05:37:45;97853.16;;;17.59;87.39
59194;BME280;44967;48.598;15.650;2023-07-20T05:40:14;97851.91;;;17.65;87.37
59194;BME280;44967;48.598;15.650;2023-07-20T05:42:45;97856.78;;;17.58;87.88
59194;BME280;44967;48.598;15.650;2023-07-20T05:45:12;97859.81;;;17.66;88.33
59194;BME280;44967;48.598;15.650;2023-07-20T05:47:37;97864.16;;;17.81;89.13
59194;BME280;44967;48.598;15.650;2023-07-20T05:50:03;97864.41;;;17.91;89.25
59194;BME280;44967;48.598;15.650;2023-07-20T05:52:29;97859.47;;;17.98;88.16
59194;BME280;44967;48.598;15.650;2023-07-20T05:54:55;97865.72;;;18.11;87.24
59194;BME280;44967;48.598;15.650;2023-07-20T05:57:20;97868.84;;;18.17;85.98
59194;BME280;44967;48.598;15.650;2023-07-20T05:59:46;97865.34;;;18.42;83.72
59194;BME280;44967;48.598;15.650;2023-07-20T06:02:12;97869.91;;;18.54;79.99
59194;BME280;44967;48.598;15.650;2023-07-20T06:04:38;97863.47;;;18.69;77.40
59194;BME280;44967;48.598;15.650;2023-07-20T06:07:04;97871.59;;;18.80;75.96
59194;BME280;44967;48.598;15.650;2023-07-20T06:09:31;97867.97;;;18.94;73.63
59194;BME280;44967;48.598;15.650;2023-07-20T06:11:56;97869.88;;;19.05;76.61
59194;BME280;44967;48.598;15.650;2023-07-20T06:14:22;97864.94;;;19.11;75.58
59194;BME280;44967;48.598;15.650;2023-07-20T06:16:48;97870.19;;;19.13;74.27
59194;BME280;44967;48.598;15.650;2023-07-20T06:19:13;97874.13;;;19.20;73.92
59194;BME280;44967;48.598;15.650;2023-07-20T06:21:39;97864.25;;;19.20;76.44
59194;BME280;44967;48.598;15.650;2023-07-20T06:24:05;97876.47;;;19.24;74.72
59194;BME280;44967;48.598;15.650;2023-07-20T06:26:32;97863.47;;;19.44;69.85
59194;BME280;44967;48.598;15.650;2023-07-20T06:29:07;97867.00;;;19.57;71.00
59194;BME280;44967;48.598;15.650;2023-07-20T06:31:35;97858.91;;;19.69;69.94
59194;BME280;44967;48.598;15.650;2023-07-20T06:34:01;97857.38;;;19.78;69.95
59194;BME280;44967;48.598;15.650;2023-07-20T06:36:27;97860.44;;;19.85;70.94
59194;BME280;44967;48.598;15.650;2023-07-20T06:38:54;97857.53;;;19.88;70.75
59194;BME280;44967;48.598;15.650;2023-07-20T06:42:18;97848.41;;;19.90;72.19
59194;BME280;44967;48.598;15.650;2023-07-20T06:44:43;97852.53;;;20.18;66.23
59194;BME280;44967;48.598;15.650;2023-07-20T06:47:09;97852.47;;;20.31;68.22
59194;BME280;44967;48.598;15.650;2023-07-20T06:49:35;97851.81;;;20.27;68.05
59194;BME280;44967;48.598;15.650;2023-07-20T06:52:00;97855.44;;;20.39;65.85
59194;BME280;44967;48.598;15.650;2023-07-20T06:54:26;97851.94;;;20.49;63.77
59194;BME280;44967;48.598;15.650;2023-07-20T06:56:53;97857.56;;;20.68;64.54
59194;BME280;44967;48.598;15.650;2023-07-20T06:59:18;97859.41;;;20.79;63.94
59194;BME280;44967;48.598;15.650;2023-07-20T07:01:44;97858.09;;;20.85;63.34
59194;BME280;44967;48.598;15.650;2023-07-20T07:04:10;97852.47;;;20.99;62.44
59194;BME280;44967;48.598;15.650;2023-07-20T07:06:36;97858.34;;;21.04;64.69
59194;BME280;44967;48.598;15.650;2023-07-20T07:09:02;97851.66;;;21.21;65.05
59194;BME280;44967;48.598;15.650;2023-07-20T07:11:29;97859.59;;;21.33;61.44
59194;BME280;44967;48.598;15.650;2023-07-20T07:13:54;97860.25;;;21.69;59.88
59194;BME280;44967;48.598;15.650;2023-07-20T07:16:20;97852.38;;;22.40;58.64
59194;BME280;44967;48.598;15.650;2023-07-20T07:18:46;97860.34;;;23.34;54.62
59194;BME280;44967;48.598;15.650;2023-07-20T07:21:12;97853.84;;;24.34;49.84
59194;BME280;44967;48.598;15.650;2023-07-20T07:23:38;97851.91;;;25.02;49.64
59194;BME280;44967;48.598;15.650;2023-07-20T07:26:04;97849.88;;;25.78;47.49
59194;BME280;44967;48.598;15.650;2023-07-20T07:28:29;97846.97;;;26.24;44.84
59194;BME280;44967;48.598;15.650;2023-07-20T07:30:55;97845.84;;;26.27;43.83
59194;BME280;44967;48.598;15.650;2023-07-20T07:33:22;97847.66;;;26.62;43.19
59194;BME280;44967;48.598;15.650;2023-07-20T07:35:49;97837.63;;;27.40;42.17
59194;BME280;44967;48.598;15.650;2023-07-20T07:38:15;97845.19;;;27.20;42.65
59194;BME280;44967;48.598;15.650;2023-07-20T07:40:40;97850.16;;;28.08;42.05
59194;BME280;44967;48.598;15.650;2023-07-20T07:43:07;97843.22;;;28.38;39.31
59194;BME280;44967;48.598;15.650;2023-07-20T07:45:35;97828.53;;;29.28;38.95
59194;BME280;44967;48.598;15.650;2023-07-20T07:48:04;97829.63;;;29.58;37.93
59194;BME280;44967;48.598;15.650;2023-07-20T07:50:31;97839.63;;;29.11;37.47
59194;BME280;44967;48.598;15.650;2023-07-20T07:52:57;97843.53;;;29.00;38.28
59194;BME280;44967;48.598;15.650;2023-07-20T07:55:24;97847.47;;;27.75;40.99
59194;BME280;44967;48.598;15.650;2023-07-20T07:57:52;97841.47;;;26.95;43.15
59194;BME280;44967;48.598;15.650;2023-07-20T08:00:18;97840.59;;;27.21;41.90
59194;BME280;44967;48.598;15.650;2023-07-20T08:02:47;97835.69;;;26.29;42.90
59194;BME280;44967;48.598;15.650;2023-07-20T08:05:15;97832.34;;;26.79;42.43
59194;BME280;44967;48.598;15.650;2023-07-20T08:07:41;97844.22;;;27.03;41.38
59194;BME280;44967;48.598;15.650;2023-07-20T08:10:08;97846.06;;;26.34;43.69
59194;BME280;44967;48.598;15.650;2023-07-20T08:12:33;97846.59;;;26.81;42.58
59194;BME280;44967;48.598;15.650;2023-07-20T08:15:00;97846.63;;;26.63;42.60
59194;BME280;44967;48.598;15.650;2023-07-20T08:17:25;97832.97;;;26.90;42.36
59194;BME280;44967;48.598;15.650;2023-07-20T08:19:51;97841.69;;;26.58;41.75
59194;BME280;44967;48.598;15.650;2023-07-20T08:22:17;97847.25;;;27.60;39.48
59194;BME280;44967;48.598;15.650;2023-07-20T08:24:43;97836.66;;;27.15;40.80
59194;BME280;44967;48.598;15.650;2023-07-20T08:27:12;97848.00;;;27.86;39.23
59194;BME280;44967;48.598;15.650;2023-07-20T08:29:38;97840.56;;;27.88;39.26
59194;BME280;44967;48.598;15.650;2023-07-20T08:32:04;97847.25;;;27.60;40.72
59194;BME280;44967;48.598;15.650;2023-07-20T08:34:31;97848.38;;;26.46;41.45
59194;BME280;44967;48.598;15.650;2023-07-20T08:36:57;97842.53;;;26.06;42.66
59194;BME280;44967;48.598;15.650;2023-07-20T08:39:23;97836.16;;;26.86;42.16
59194;BME280;44967;48.598;15.650;2023-07-20T08:41:50;97837.94;;;27.03;40.91
59194;BME280;44967;48.598;15.650;2023-07-20T08:44:17;97832.66;;;26.93;40.37
59194;BME280;44967;48.598;15.650;2023-07-20T08:46:43;97844.44;;;26.23;41.94
59194;BME280;44967;48.598;15.650;2023-07-20T08:49:11;97836.63;;;27.07;40.87
59194;BME280;44967;48.598;15.650;2023-07-20T08:51:37;97835.72;;;26.98;41.10
59194;BME280;44967;48.598;15.650;2023-07-20T08:54:04;97834.84;;;27.24;40.39
59194;BME280;44967;48.598;15.650;2023-07-20T08:56:31;97844.38;;;28.12;39.62
59194;BME280;44967;48.598;15.650;2023-07-20T08:58:59;97848.16;;;28.35;40.16
59194;BME280;44967;48.598;15.650;2023-07-20T09:01:26;97832.66;;;28.92;37.13
59194;BME280;44967;48.598;15.650;2023-07-20T09:03:52;97842.44;;;27.88;37.90
59194;BME280;44967;48.598;15.650;2023-07-20T09:06:18;97846.03;;;27.54;37.67
59194;BME280;44967;48.598;15.650;2023-07-20T09:08:43;97834.84;;;27.24;38.70
59194;BME280;44967;48.598;15.650;2023-07-20T09:11:11;97830.69;;;26.60;40.23
59194;BME280;44967;48.598;15.650;2023-07-20T09:13:37;97838.41;;;26.55;41.58
59194;BME280;44967;48.598;15.650;2023-07-20T09:16:03;97838.13;;;26.58;40.58
59194;BME280;44967;48.598;15.650;2023-07-20T09:18:31;97830.72;;;26.07;41.60
59194;BME280;44967;48.598;15.650;2023-07-20T09:20:58;97847.19;;;25.68;42.96
59194;BME280;44967;48.598;15.650;2023-07-20T09:23:38;97838.97;;;26.05;41.83
59194;BME280;44967;48.598;15.650;2023-07-20T09:26:12;97843.75;;;25.76;42.93
59194;BME280;44967;48.598;15.650;2023-07-20T09:28:57;97848.22;;;25.03;44.36
59194;BME280;44967;48.598;15.650;2023-07-20T09:31:23;97841.00;;;25.21;43.45
59194;BME280;44967;48.598;15.650;2023-07-20T09:33:50;97848.78;;;25.71;43.29
59194;BME280;44967;48.598;15.650;2023-07-20T09:36:17;97850.06;;;26.91;42.11
59194;BME280;44967;48.598;15.650;2023-07-20T09:38:42;97837.56;;;27.49;40.24
59194;BME280;44967;48.598;15.650;2023-07-20T09:41:13;97844.16;;;28.05;38.65
59194;BME280;44967;48.598;15.650;2023-07-20T09:43:41;97831.38;;;27.73;39.39
59194;BME280;44967;48.598;15.650;2023-07-20T09:46:08;97837.03;;;27.20;39.64
59194;BME280;44967;48.598;15.650;2023-07-20T09:48:34;97835.63;;;27.08;39.55
59194;BME280;44967;48.598;15.650;2023-07-20T09:51:00;97841.56;;;26.24;40.90
59194;BME280;44967;48.598;15.650;2023-07-20T09:53:27;97839.28;;;26.02;40.93
59194;BME280;44967;48.598;15.650;2023-07-20T09:55:54;97827.31;;;25.87;40.51
59194;BME280;44967;48.598;15.650;2023-07-20T09:58:21;97837.53;;;26.11;39.98
59194;BME280;44967;48.598;15.650;2023-07-20T10:00:48;97833.72;;;26.57;39.49
59194;BME280;44967;48.598;15.650;2023-07-20T10:03:19;97829.13;;;27.01;38.23
59194;BME280;44967;48.598;15.650;2023-07-20T10:06:02;97830.38;;;27.14;36.90
59194;BME280;44967;48.598;15.650;2023-07-20T10:08:30;97819.47;;;27.82;33.88
59194;BME280;44967;48.598;15.650;2023-07-20T10:10:59;97818.47;;;27.83;32.96
59194;BME280;44967;48.598;15.650;2023-07-20T10:13:28;97813.22;;;27.40;34.51
59194;BME280;44967;48.598;15.650;2023-07-20T10:16:00;97808.84;;;27.47;33.49
59194;BME280;44967;48.598;15.650;2023-07-20T10:21:17;97810.44;;;27.57;33.15
59194;BME280;44967;48.598;15.650;2023-07-20T10:23:43;97824.44;;;27.95;32.59
59194;BME280;44967;48.598;15.650;2023-07-20T10:26:10;97813.41;;;27.96;31.57
59194;BME280;44967;48.598;15.650;2023-07-20T10:28:38;97813.09;;;27.99;31.29
59194;BME280;44967;48.598;15.650;2023-07-20T10:31:04;97817.50;;;27.92;32.10
59194;BME280;44967;48.598;15.650;2023-07-20T10:33:30;97822.66;;;28.28;31.07
59194;BME280;44967;48.598;15.650;2023-07-20T10:35:59;97816.03;;;28.22;32.47
59194;BME280;44967;48.598;15.650;2023-07-20T10:38:41;97808.19;;;28.11;30.91
59194;BME280;44967;48.598;15.650;2023-07-20T10:41:34;97797.00;;;28.22;30.43
59194;BME280;44967;48.598;15.650;2023-07-20T10:44:04;97804.66;;;28.35;29.72
59194;BME280;44967;48.598;15.650;2023-07-20T10:49:07;97799.88;;;28.61;29.33
59194;BME280;44967;48.598;15.650;2023-07-20T10:56:57;97794.44;;;28.53;28.27
59194;BME280;44967;48.598;15.650;2023-07-20T11:02:05;97795.28;;;28.29;28.85
59194;BME280;44967;48.598;15.650;2023-07-20T11:04:38;97792.75;;;28.60;29.67
59194;BME280;44967;48.598;15.650;2023-07-20T11:07:05;97784.94;;;28.33;28.64
59194;BME280;44967;48.598;15.650;2023-07-20T11:09:35;97789.19;;;28.51;28.53
59194;BME280;44967;48.598;15.650;2023-07-20T11:12:12;97791.56;;;28.71;27.63
59194;BME280;44967;48.598;15.650;2023-07-20T11:14:55;97793.75;;;28.83;27.20
59194;BME280;44967;48.598;15.650;2023-07-20T11:17:29;97772.88;;;28.76;26.94
59194;BME280;44967;48.598;15.650;2023-07-20T11:19:56;97783.41;;;28.79;27.39
59194;BME280;44967;48.598;15.650;2023-07-20T11:22:22;97791.22;;;28.82;27.67
59194;BME280;44967;48.598;15.650;2023-07-20T11:24:48;97785.63;;;28.43;27.38
59194;BME280;44967;48.598;15.650;2023-07-20T11:27:16;97777.47;;;28.35;28.18
59194;BME280;44967;48.598;15.650;2023-07-20T11:29:45;97781.13;;;28.01;28.12
59194;BME280;44967;48.598;15.650;2023-07-20T11:32:10;97780.19;;;28.19;28.09
59194;BME280;44967;48.598;15.650;2023-07-20T11:34:36;97784.75;;;28.58;27.98
59194;BME280;44967;48.598;15.650;2023-07-20T11:37:02;97786.13;;;28.30;28.02
59194;BME280;44967;48.598;15.650;2023-07-20T11:39:29;97774.06;;;28.33;27.99
59194;BME280;44967;48.598;15.650;2023-07-20T11:41:55;97772.66;;;28.61;27.41
59194;BME280;44967;48.598;15.650;2023-07-20T11:44:23;97774.38;;;28.78;25.91
59194;BME280;44967;48.598;15.650;2023-07-20T11:47:03;97777.13;;;28.70;27.03
59194;BME280;44967;48.598;15.650;2023-07-20T11:49:30;97790.00;;;28.76;27.66
59194;BME280;44967;48.598;15.650;2023-07-20T11:52:00;97773.88;;;28.42;29.37
59194;BME280;44967;48.598;15.650;2023-07-20T11:54:26;97791.91;;;28.43;31.35
59194;BME280;44967;48.598;15.650;2023-07-20T11:56:55;97794.16;;;27.57;33.01
59194;BME280;44967;48.598;15.650;2023-07-20T11:59:21;97798.03;;;27.55;34.02
59194;BME280;44967;48.598;15.650;2023-07-20T12:01:47;97796.84;;;28.16;34.92
59194;BME280;44967;48.598;15.650;2023-07-20T12:04:13;97804.31;;;28.30;34.43
59194;BME280;44967;48.598;15.650;2023-07-20T12:06:39;97806.94;;;27.97;35.24
59194;BME280;44967;48.598;15.650;2023-07-20T12:09:06;97788.16;;;28.12;34.51
59194;BME280;44967;48.598;15.650;2023-07-20T12:11:39;97793.75;;;28.10;36.05
59194;BME280;44967;48.598;15.650;2023-07-20T12:14:09;97794.63;;;28.19;35.13
59194;BME280;44967;48.598;15.650;2023-07-20T12:16:35;97791.41;;;28.32;35.21
59194;BME280;44967;48.598;15.650;2023-07-20T12:19:12;97796.00;;;28.39;34.42
59194;BME280;44967;48.598;15.650;2023-07-20T12:21:39;97807.72;;;28.48;35.02
59194;BME280;44967;48.598;15.650;2023-07-20T12:24:07;97793.28;;;28.31;34.42
59194;BME280;44967;48.598;15.650;2023-07-20T12:26:34;97803.38;;;28.05;34.92
59194;BME280;44967;48.598;15.650;2023-07-20T12:29:00;97795.72;;;27.76;35.87
59194;BME280;44967;48.598;15.650;2023-07-20T12:31:27;97789.66;;;28.06;34.75
59194;BME280;44967;48.598;15.650;2023-07-20T12:33:54;97790.03;;;28.52;34.90
59194;BME280;44967;48.598;15.650;2023-07-20T12:36:23;97778.63;;;28.56;33.08
59194;BME280;44967;48.598;15.650;2023-07-20T12:38:49;97782.75;;;28.28;32.58
59194;BME280;44967;48.598;15.650;2023-07-20T12:41:15;97780.34;;;28.49;33.01
59194;BME280;44967;48.598;15.650;2023-07-20T12:43:41;97773.88;;;28.67;33.03
59194;BME280;44967;48.598;15.650;2023-07-20T12:46:08;97771.69;;;28.38;32.67
59194;BME280;44967;48.598;15.650;2023-07-20T12:48:34;97773.72;;;28.36;33.03
59194;BME280;44967;48.598;15.650;2023-07-20T12:51:02;97762.31;;;28.00;33.96
59194;BME280;44967;48.598;15.650;2023-07-20T12:53:28;97765.91;;;28.08;33.30
59194;BME280;44967;48.598;15.650;2023-07-20T12:55:54;97760.44;;;28.81;32.75
59194;BME280;44967;48.598;15.650;2023-07-20T12:58:20;97769.44;;;28.66;34.01
59194;BME280;44967;48.598;15.650;2023-07-20T13:00:45;97764.88;;;28.50;32.49
59194;BME280;44967;48.598;15.650;2023-07-20T13:03:11;97766.25;;;28.38;34.10
59194;BME280;44967;48.598;15.650;2023-07-20T13:05:36;97754.81;;;28.02;33.64
59194;BME280;44967;48.598;15.650;2023-07-20T13:08:02;97757.75;;;28.33;34.05
59194;BME280;44967;48.598;15.650;2023-07-20T13:10:29;97753.97;;;28.66;32.08
59194;BME280;44967;48.598;15.650;2023-07-20T13:12:55;97762.28;;;28.81;31.97
59194;BME280;44967;48.598;15.650;2023-07-20T13:15:20;97761.13;;;28.83;32.40